sensor_id;sensor_type;location;lat;lon;timestamp;temperature;humidity
6930;DHT22;3504;52.616;13.238;2022-09-03T00:02:30;13.53;62.80
6930;DHT22;3504;52.616;13.238;2022-09-03T00:07:56;13.48;62.68
6930;DHT22;3504;52.616;13.238;2022-09-03T00:13:03;13.44;62.58
6930;DHT22;3504;52.616;13.238;2022-09-03T00:18:09;13.41;63.01
6930;DHT22;3504;52.616;13.238;2022-09-03T00:23:23;13.38;63.31
6930;DHT22;3504;52.616;13.238;2022-09-03T00:28:37;13.34;62.82
6930;DHT22;3504;52.616;13.238;2022-09-03T00:33:43;13.31;63.17
6930;DHT22;3504;52.616;13.238;2022-09-03T00:38:45;13.28;63.69
6930;DHT22;3504;52.616;13.238;2022-09-03T00:44:33;13.21;63.91
6930;DHT22;3504;52.616;13.238;2022-09-03T00:55:32;13.11;64.26
6930;DHT22;3504;52.616;13.238;2022-09-03T01:00:35;13.06;64.14
6930;DHT22;3504;52.616;13.238;2022-09-03T01:11:23;13.00;64.83
6930;DHT22;3504;52.616;13.238;2022-09-03T01:16:46;12.96;64.31
6930;DHT22;3504;52.616;13.238;2022-09-03T01:33:36;12.85;64.46
6930;DHT22;3504;52.616;13.238;2022-09-03T01:39:00;12.87;64.93
6930;DHT22;3504;52.616;13.238;2022-09-03T01:44:20;12.81;64.75
6930;DHT22;3504;52.616;13.238;2022-09-03T01:49:42;12.77;65.32
6930;DHT22;3504;52.616;13.238;2022-09-03T02:00:19;12.71;65.44
6930;DHT22;3504;52.616;13.238;2022-09-03T02:05:24;12.71;65.45
6930;DHT22;3504;52.616;13.238;2022-09-03T02:15:31;12.64;65.62
6930;DHT22;3504;52.616;13.238;2022-09-03T02:20:36;12.56;65.63
6930;DHT22;3504;52.616;13.238;2022-09-03T02:25:43;12.59;65.67
6930;DHT22;3504;52.616;13.238;2022-09-03T02:30:45;12.50;66.16
6930;DHT22;3504;52.616;13.238;2022-09-03T02:35:47;12.45;65.95
6930;DHT22;3504;52.616;13.238;2022-09-03T02:40:49;12.42;66.42
6930;DHT22;3504;52.616;13.238;2022-09-03T02:45:54;12.39;66.37
6930;DHT22;3504;52.616;13.238;2022-09-03T02:50:57;12.28;67.05
6930;DHT22;3504;52.616;13.238;2022-09-03T02:56:01;12.19;67.37
6930;DHT22;3504;52.616;13.238;2022-09-03T03:01:04;12.18;67.19
6930;DHT22;3504;52.616;13.238;2022-09-03T03:06:05;12.14;67.14
6930;DHT22;3504;52.616;13.238;2022-09-03T03:11:07;12.11;67.44
6930;DHT22;3504;52.616;13.238;2022-09-03T03:16:07;12.02;67.44
6930;DHT22;3504;52.616;13.238;2022-09-03T03:21:12;12.01;67.57
6930;DHT22;3504;52.616;13.238;2022-09-03T03:26:17;11.99;67.62
6930;DHT22;3504;52.616;13.238;2022-09-03T03:31:20;11.95;68.03
6930;DHT22;3504;52.616;13.238;2022-09-03T03:36:25;11.91;67.96
6930;DHT22;3504;52.616;13.238;2022-09-03T03:41:31;11.88;68.02
6930;DHT22;3504;52.616;13.238;2022-09-03T03:46:35;11.78;68.30
6930;DHT22;3504;52.616;13.238;2022-09-03T03:51:38;11.74;68.71
6930;DHT22;3504;52.616;13.238;2022-09-03T03:56:39;11.68;68.55
6930;DHT22;3504;52.616;13.238;2022-09-03T04:01:40;11.67;68.92
6930;DHT22;3504;52.616;13.238;2022-09-03T04:06:41;11.66;69.18
6930;DHT22;3504;52.616;13.238;2022-09-03T04:11:42;11.61;69.32
6930;DHT22;3504;52.616;13.238;2022-09-03T04:16:43;11.61;69.34
6930;DHT22;3504;52.616;13.238;2022-09-03T04:21:47;11.61;69.60
6930;DHT22;3504;52.616;13.238;2022-09-03T04:26:47;11.64;69.79
6930;DHT22;3504;52.616;13.238;2022-09-03T04:31:50;11.67;69.38
6930;DHT22;3504;52.616;13.238;2022-09-03T04:37:09;11.73;69.45
6930;DHT22;3504;52.616;13.238;2022-09-03T04:42:11;11.77;69.12
6930;DHT22;3504;52.616;13.238;2022-09-03T04:47:12;11.79;69.26
6930;DHT22;3504;52.616;13.238;2022-09-03T04:52:14;11.87;69.20
6930;DHT22;3504;52.616;13.238;2022-09-03T04:57:14;11.88;68.97
6930;DHT22;3504;52.616;13.238;2022-09-03T05:02:16;11.95;69.09
6930;DHT22;3504;52.616;13.238;2022-09-03T05:07:17;12.04;69.06
6930;DHT22;3504;52.616;13.238;2022-09-03T05:12:21;12.08;69.36
6930;DHT22;3504;52.616;13.238;2022-09-03T05:17:22;12.17;69.14
6930;DHT22;3504;52.616;13.238;2022-09-03T05:22:24;12.22;69.39
6930;DHT22;3504;52.616;13.238;2022-09-03T05:27:25;12.29;69.39
6930;DHT22;3504;52.616;13.238;2022-09-03T05:32:30;12.32;69.39
6930;DHT22;3504;52.616;13.238;2022-09-03T05:37:30;12.36;69.52
6930;DHT22;3504;52.616;13.238;2022-09-03T05:42:32;12.39;69.40
6930;DHT22;3504;52.616;13.238;2022-09-03T05:47:38;12.42;69.71
6930;DHT22;3504;52.616;13.238;2022-09-03T05:52:40;12.35;70.05
6930;DHT22;3504;52.616;13.238;2022-09-03T05:57:40;12.43;70.32
6930;DHT22;3504;52.616;13.238;2022-09-03T06:02:52;12.56;70.65
6930;DHT22;3504;52.616;13.238;2022-09-03T06:07:52;12.77;70.38
6930;DHT22;3504;52.616;13.238;2022-09-03T06:12:54;12.90;70.19
6930;DHT22;3504;52.616;13.238;2022-09-03T06:17:55;13.07;70.30
6930;DHT22;3504;52.616;13.238;2022-09-03T06:22:57;13.21;69.77
6930;DHT22;3504;52.616;13.238;2022-09-03T06:27:57;13.46;70.10
6930;DHT22;3504;52.616;13.238;2022-09-03T06:32:59;13.71;69.80
6930;DHT22;3504;52.616;13.238;2022-09-03T06:38:00;13.97;68.62
6930;DHT22;3504;52.616;13.238;2022-09-03T06:43:01;14.20;67.66
6930;DHT22;3504;52.616;13.238;2022-09-03T06:48:02;14.42;67.71
6930;DHT22;3504;52.616;13.238;2022-09-03T06:53:04;14.75;65.87
6930;DHT22;3504;52.616;13.238;2022-09-03T06:58:05;15.06;66.58
6930;DHT22;3504;52.616;13.238;2022-09-03T07:03:07;15.47;64.60
6930;DHT22;3504;52.616;13.238;2022-09-03T07:08:07;15.74;63.90
6930;DHT22;3504;52.616;13.238;2022-09-03T07:13:10;15.60;62.73
6930;DHT22;3504;52.616;13.238;2022-09-03T07:18:12;15.47;62.84
6930;DHT22;3504;52.616;13.238;2022-09-03T07:23:13;15.56;62.72
6930;DHT22;3504;52.616;13.238;2022-09-03T07:28:15;15.66;62.61
6930;DHT22;3504;52.616;13.238;2022-09-03T07:33:18;15.91;63.57
6930;DHT22;3504;52.616;13.238;2022-09-03T10:11:43;22.87;41.85
6930;DHT22;3504;52.616;13.238;2022-09-03T11:00:13;23.27;34.80
6930;DHT22;3504;52.616;13.238;2022-09-03T11:05:39;22.86;35.70
6930;DHT22;3504;52.616;13.238;2022-09-03T11:10:49;22.30;36.40
6930;DHT22;3504;52.616;13.238;2022-09-03T11:15:57;21.76;36.54
6930;DHT22;3504;52.616;13.238;2022-09-03T11:21:00;21.57;37.35
6930;DHT22;3504;52.616;13.238;2022-09-03T11:26:11;21.62;38.67
6930;DHT22;3504;52.616;13.238;2022-09-03T11:36:47;21.71;38.61
6930;DHT22;3504;52.616;13.238;2022-09-03T11:42:03;21.59;39.12
6930;DHT22;3504;52.616;13.238;2022-09-03T11:47:38;21.54;39.97
6930;DHT22;3504;52.616;13.238;2022-09-03T11:52:39;22.09;39.66
6930;DHT22;3504;52.616;13.238;2022-09-03T11:57:41;22.26;39.90
6930;DHT22;3504;52.616;13.238;2022-09-03T12:02:59;22.29;39.86
6930;DHT22;3504;52.616;13.238;2022-09-03T12:08:18;22.25;37.71
6930;DHT22;3504;52.616;13.238;2022-09-03T12:14:03;22.27;38.30
6930;DHT22;3504;52.616;13.238;2022-09-03T12:24:43;21.98;39.11
6930;DHT22;3504;52.616;13.238;2022-09-03T12:30:16;21.99;38.54
6930;DHT22;3504;52.616;13.238;2022-09-03T12:35:23;21.75;39.21
6930;DHT22;3504;52.616;13.238;2022-09-03T12:40:27;21.88;40.33
6930;DHT22;3504;52.616;13.238;2022-09-03T12:45:30;21.99;38.50
6930;DHT22;3504;52.616;13.238;2022-09-03T12:50:30;22.06;39.99
6930;DHT22;3504;52.616;13.238;2022-09-03T12:55:46;22.08;38.64
6930;DHT22;3504;52.616;13.238;2022-09-03T13:06:05;22.41;37.03
6930;DHT22;3504;52.616;13.238;2022-09-03T13:11:09;22.37;37.42
6930;DHT22;3504;52.616;13.238;2022-09-03T13:16:40;22.46;37.11
6930;DHT22;3504;52.616;13.238;2022-09-03T13:22:36;22.30;35.62
6930;DHT22;3504;52.616;13.238;2022-09-03T13:33:42;22.47;36.21
6930;DHT22;3504;52.616;13.238;2022-09-03T13:38:57;22.41;36.64
6930;DHT22;3504;52.616;13.238;2022-09-03T13:44:15;22.26;37.35
6930;DHT22;3504;52.616;13.238;2022-09-03T13:49:40;22.40;36.99
6930;DHT22;3504;52.616;13.238;2022-09-03T13:55:18;22.86;36.92
6930;DHT22;3504;52.616;13.238;2022-09-03T14:00:30;23.21;35.85
6930;DHT22;3504;52.616;13.238;2022-09-03T14:10:59;22.81;35.92
6930;DHT22;3504;52.616;13.238;2022-09-03T14:26:55;22.36;37.61
6930;DHT22;3504;52.616;13.238;2022-09-03T14:49:46;22.56;36.08
6930;DHT22;3504;52.616;13.238;2022-09-03T15:00:16;22.23;35.99
6930;DHT22;3504;52.616;13.238;2022-09-03T15:11:27;21.88;36.64
6930;DHT22;3504;52.616;13.238;2022-09-03T15:16:50;22.17;37.82
6930;DHT22;3504;52.616;13.238;2022-09-03T15:22:45;22.40;36.65
6930;DHT22;3504;52.616;13.238;2022-09-03T15:28:30;22.52;37.16
6930;DHT22;3504;52.616;13.238;2022-09-03T15:39:02;22.25;36.03
6930;DHT22;3504;52.616;13.238;2022-09-03T15:44:17;22.12;36.25
6930;DHT22;3504;52.616;13.238;2022-09-03T15:49:46;22.02;37.18
6930;DHT22;3504;52.616;13.238;2022-09-03T15:55:33;21.92;36.97
6930;DHT22;3504;52.616;13.238;2022-09-03T16:01:39;21.89;37.09
6930;DHT22;3504;52.616;13.238;2022-09-03T16:07:15;21.82;36.90
6930;DHT22;3504;52.616;13.238;2022-09-03T16:17:33;21.64;37.38
6930;DHT22;3504;52.616;13.238;2022-09-03T16:28:15;21.51;37.96
6930;DHT22;3504;52.616;13.238;2022-09-03T16:44:06;21.30;38.38
6930;DHT22;3504;52.616;13.238;2022-09-03T16:54:51;21.18;38.96
6930;DHT22;3504;52.616;13.238;2022-09-03T17:00:19;21.11;39.00
6930;DHT22;3504;52.616;13.238;2022-09-03T17:39:15;20.49;41.00
6930;DHT22;3504;52.616;13.238;2022-09-03T17:49:50;20.21;41.70
6930;DHT22;3504;52.616;13.238;2022-09-03T17:54:57;20.05;41.73
6930;DHT22;3504;52.616;13.238;2022-09-03T18:00:07;19.88;42.67
6930;DHT22;3504;52.616;13.238;2022-09-03T18:05:26;19.71;43.15
6930;DHT22;3504;52.616;13.238;2022-09-03T18:11:08;19.56;44.08
6930;DHT22;3504;52.616;13.238;2022-09-03T18:16:31;19.43;45.29
6930;DHT22;3504;52.616;13.238;2022-09-03T18:21:36;19.30;46.24
6930;DHT22;3504;52.616;13.238;2022-09-03T18:27:02;19.22;46.03
6930;DHT22;3504;52.616;13.238;2022-09-03T18:32:25;19.05;46.69
6930;DHT22;3504;52.616;13.238;2022-09-03T18:37:44;18.89;46.56
6930;DHT22;3504;52.616;13.238;2022-09-03T18:43:41;18.79;46.46
6930;DHT22;3504;52.616;13.238;2022-09-03T18:49:31;18.74;46.73
6930;DHT22;3504;52.616;13.238;2022-09-03T18:55:30;18.64;47.36
6930;DHT22;3504;52.616;13.238;2022-09-03T19:01:35;18.60;47.18
6930;DHT22;3504;52.616;13.238;2022-09-03T19:07:15;18.50;47.45
6930;DHT22;3504;52.616;13.238;2022-09-03T19:24:30;18.33;48.37
6930;DHT22;3504;52.616;13.238;2022-09-03T19:30:06;18.26;49.00
6930;DHT22;3504;52.616;13.238;2022-09-03T19:47:39;17.96;49.92
6930;DHT22;3504;52.616;13.238;2022-09-03T19:53:12;17.85;50.91
6930;DHT22;3504;52.616;13.238;2022-09-03T19:58:34;17.79;51.01
6930;DHT22;3504;52.616;13.238;2022-09-03T20:03:59;17.69;51.67
6930;DHT22;3504;52.616;13.238;2022-09-03T20:09:35;17.64;52.46
6930;DHT22;3504;52.616;13.238;2022-09-03T20:14:56;17.58;51.96
6930;DHT22;3504;52.616;13.238;2022-09-03T20:31:09;17.51;51.20
6930;DHT22;3504;52.616;13.238;2022-09-03T20:36:29;17.49;51.57
6930;DHT22;3504;52.616;13.238;2022-09-03T20:53:14;17.42;52.04
6930;DHT22;3504;52.616;13.238;2022-09-03T21:03:59;17.32;52.23
6930;DHT22;3504;52.616;13.238;2022-09-03T21:15:22;17.24;51.01
6930;DHT22;3504;52.616;13.238;2022-09-03T21:21:14;17.27;51.53
6930;DHT22;3504;52.616;13.238;2022-09-03T21:26:24;17.27;51.03
6930;DHT22;3504;52.616;13.238;2022-09-03T21:31:39;17.25;51.86
6930;DHT22;3504;52.616;13.238;2022-09-03T21:36:42;17.25;51.28
6930;DHT22;3504;52.616;13.238;2022-09-03T21:47:18;17.24;50.84
6930;DHT22;3504;52.616;13.238;2022-09-03T21:52:34;17.20;50.66
6930;DHT22;3504;52.616;13.238;2022-09-03T21:58:11;17.17;50.55
6930;DHT22;3504;52.616;13.238;2022-09-03T22:03:14;17.21;50.71
6930;DHT22;3504;52.616;13.238;2022-09-03T22:08:50;17.18;49.98
6930;DHT22;3504;52.616;13.238;2022-09-03T22:14:05;17.14;50.30
6930;DHT22;3504;52.616;13.238;2022-09-03T22:19:09;17.14;50.27
6930;DHT22;3504;52.616;13.238;2022-09-03T22:24:18;17.13;50.04
6930;DHT22;3504;52.616;13.238;2022-09-03T22:40:36;16.99;50.48
6930;DHT22;3504;52.616;13.238;2022-09-03T22:46:01;16.97;50.76
6930;DHT22;3504;52.616;13.238;2022-09-03T22:51:04;16.99;50.46
6930;DHT22;3504;52.616;13.238;2022-09-03T22:56:14;17.01;50.52
6930;DHT22;3504;52.616;13.238;2022-09-03T23:01:55;17.00;50.55
6930;DHT22;3504;52.616;13.238;2022-09-03T23:12:58;17.00;50.69
6930;DHT22;3504;52.616;13.238;2022-09-03T23:18:14;17.03;50.46
6930;DHT22;3504;52.616;13.238;2022-09-03T23:23:35;16.97;50.48
6930;DHT22;3504;52.616;13.238;2022-09-03T23:28:41;16.93;50.78
6930;DHT22;3504;52.616;13.238;2022-09-03T23:33:46;16.87;51.40
6930;DHT22;3504;52.616;13.238;2022-09-03T23:39:09;16.80;51.42
6930;DHT22;3504;52.616;13.238;2022-09-03T23:45:01;16.79;51.59
6930;DHT22;3504;52.616;13.238;2022-09-03T23:50:42;16.76;51.74
6930;DHT22;3504;52.616;13.238;2022-09-03T23:56:16;16.72;51.84
